Time;durP1;ratioP1;P1;durP2;ratioP2;P2;SDS_P1;SDS_P2;PMS_P1;PMS_P2;Temp;Humidity;BMP_temperature;BMP_pressure;BME280_temperature;BME280_humidity;BME280_pressure;Samples;Min_cycle;Max_cycle;Signal;HPM_P1;HPM_P2
2021/05/20 00:01:09;;;;;;;1.40;1.30;;;8.80;99.90;;;9.73;100.00;98444.16;5062163;28;20461;-81
2021/05/20 00:03:38;;;;;;;1.30;1.20;;;8.80;99.90;;;9.61;100.00;98441.91;5059657;28;20866;-80
2021/05/20 00:06:06;;;;;;;2.43;1.50;;;8.60;99.90;;;9.70;100.00;98444.50;5057107;28;20798;-81
2021/05/20 00:08:34;;;;;;;2.20;1.27;;;8.70;99.90;;;9.87;100.00;98441.63;5055606;28;20467;-81
2021/05/20 00:11:03;;;;;;;1.83;1.33;;;9.10;99.90;;;9.92;100.00;98444.53;5057300;28;20827;-81
2021/05/20 00:13:31;;;;;;;1.50;1.30;;;9.00;99.90;;;9.74;100.00;98446.59;5055653;28;20452;-81
2021/05/20 00:15:59;;;;;;;2.33;1.60;;;8.80;99.90;;;9.67;100.00;98450.88;5055200;28;20580;-81
2021/05/20 00:18:27;;;;;;;7.57;1.57;;;8.70;99.90;;;9.54;100.00;98448.81;5058577;28;20955;-81
2021/05/20 00:20:55;;;;;;;11.30;1.70;;;8.60;99.90;;;9.52;100.00;98447.34;5064103;28;20459;-81
2021/05/20 00:23:24;;;;;;;8.23;1.37;;;8.60;99.90;;;9.55;100.00;98453.06;5065361;28;20459;-81
2021/05/20 00:25:52;;;;;;;2.70;1.30;;;8.60;99.90;;;9.65;100.00;98452.03;5067030;28;20517;-81
2021/05/20 00:28:21;;;;;;;2.67;1.43;;;8.70;99.90;;;9.73;100.00;98444.16;5065095;28;20537;-81
2021/05/20 00:30:49;;;;;;;2.80;1.17;;;8.80;99.90;;;9.73;100.00;98449.38;5058396;28;23183;-81
2021/05/20 00:33:17;;;;;;;6.00;1.50;;;8.80;99.90;;;9.81;100.00;98439.72;5066047;28;20457;-81
2021/05/20 00:35:45;;;;;;;1.60;1.20;;;8.90;99.90;;;9.83;100.00;98449.97;5060039;28;20519;-81
2021/05/20 00:38:13;;;;;;;2.17;1.20;;;8.90;99.90;;;9.63;100.00;98440.94;5068550;28;20448;-81
2021/05/20 00:40:41;;;;;;;3.70;1.10;;;8.70;99.90;;;9.59;100.00;98449.13;5068991;28;20444;-81
2021/05/20 00:43:09;;;;;;;3.17;1.43;;;8.70;99.90;;;9.64;100.00;98447.81;5067569;28;20970;-81
2021/05/20 00:45:38;;;;;;;2.90;1.30;;;8.70;99.90;;;9.66;100.00;98437.97;5068704;28;20503;-81
2021/05/20 00:48:08;;;;;;;1.87;1.17;;;8.70;99.90;;;9.68;100.00;98451.69;5067865;28;20793;-81
2021/05/20 00:50:36;;;;;;;2.63;1.43;;;8.70;99.90;;;9.56;100.00;98451.25;5064483;28;20464;-81
2021/05/20 00:53:04;;;;;;;2.47;1.30;;;8.60;99.90;;;9.52;100.00;98458.63;5060579;28;20473;-81
2021/05/20 00:55:34;;;;;;;11.23;1.67;;;8.60;99.90;;;9.64;100.00;98458.25;5060751;28;21003;-80
2021/05/20 00:58:06;;;;;;;2.53;1.50;;;8.70;99.90;;;9.51;100.00;98446.53;5066657;28;20471;-81
2021/05/20 01:00:35;;;;;;;4.00;1.40;;;8.60;99.90;;;9.50;100.00;98449.34;5060238;28;20452;-80
2021/05/20 01:03:05;;;;;;;2.33;1.40;;;8.60;99.90;;;9.58;100.00;98446.66;5064273;28;20555;-81
2021/05/20 01:05:34;;;;;;;2.37;1.13;;;8.70;99.90;;;9.65;100.00;98449.44;5063498;28;20471;-81
2021/05/20 01:08:02;;;;;;;1.60;1.40;;;8.70;99.90;;;9.74;100.00;98445.78;5064898;28;20847;-81
2021/05/20 01:10:30;;;;;;;8.13;1.30;;;8.80;99.90;;;9.76;100.00;98456.84;5056976;28;20812;-80
2021/05/20 01:12:58;;;;;;;4.60;1.53;;;8.80;99.90;;;9.80;100.00;98455.53;5060719;28;20467;-81
2021/05/20 01:15:29;;;;;;;1.30;1.20;;;8.90;99.90;;;9.82;100.00;98451.75;5059819;28;20484;-81
2021/05/20 01:17:59;;;;;;;2.20;1.20;;;8.90;99.90;;;9.63;100.00;98457.44;5063845;28;20472;-81
2021/05/20 01:20:30;;;;;;;1.43;1.30;;;8.70;99.90;;;9.40;100.00;98460.00;5058860;28;20472;-81
2021/05/20 01:23:07;;;;;;;2.20;1.27;;;8.50;99.90;;;9.45;100.00;98468.09;5059961;28;20460;-81
2021/05/20 01:25:37;;;;;;;1.70;1.43;;;8.50;99.90;;;9.44;100.00;98465.69;5052423;28;20464;-81
2021/05/20 01:28:09;;;;;;;1.10;1.00;;;8.50;99.90;;;9.42;100.00;98484.09;5065170;28;20453;-81
2021/05/20 01:30:41;;;;;;;10.03;1.60;;;8.50;99.90;;;9.53;100.00;98486.34;5068037;28;20463;-81
2021/05/20 01:33:09;;;;;;;1.20;1.10;;;8.60;99.90;;;9.64;100.00;98479.13;5067408;28;20437;-81
2021/05/20 01:35:41;;;;;;;6.97;1.40;;;8.70;99.90;;;9.55;100.00;98473.94;5063968;28;20497;-81
2021/05/20 01:40:56;;;;;;;1.30;1.20;;;8.50;99.90;;;9.38;100.00;98477.59;5054380;28;20569;-81
2021/05/20 01:43:26;;;;;;;1.47;1.10;;;8.50;99.90;;;9.46;100.00;98481.97;5063317;28;20464;-81
2021/05/20 01:45:57;;;;;;;2.20;1.30;;;8.50;99.90;;;9.49;100.00;98479.84;5059315;28;20549;-81
2021/05/20 01:48:26;;;;;;;1.57;1.10;;;8.60;99.90;;;9.59;100.00;98487.47;5064698;28;20926;-81
2021/05/20 01:51:03;;;;;;;1.47;1.23;;;8.70;99.90;;;9.63;100.00;98480.09;5063816;28;20452;-81
2021/05/20 01:53:33;;;;;;;1.23;1.13;;;8.70;99.90;;;9.54;100.00;98481.94;5062504;28;20463;-80
2021/05/20 01:56:04;;;;;;;7.67;1.97;;;8.60;99.90;;;9.46;100.00;98480.19;5063283;28;21002;-81
2021/05/20 01:58:34;;;;;;;2.10;1.30;;;8.50;99.90;;;9.54;100.00;98477.53;5064247;28;20468;-81
2021/05/20 02:01:04;;;;;;;1.57;1.33;;;8.60;99.90;;;9.54;100.00;98487.97;5058231;28;20460;-81
2021/05/20 02:03:32;;;;;;;2.53;1.27;;;8.60;99.90;;;9.47;100.00;98487.03;5059455;28;20467;-81
2021/05/20 02:06:02;;;;;;;2.03;1.30;;;8.60;99.90;;;9.59;100.00;98495.28;5065591;28;20468;-81
2021/05/20 02:08:31;;;;;;;5.00;1.70;;;8.80;99.90;;;9.66;100.00;98490.22;5060914;28;20542;-80
2021/05/20 02:10:59;;;;;;;1.30;1.20;;;8.90;99.90;;;9.72;100.00;98492.94;5060501;28;20454;-80
2021/05/20 02:13:28;;;;;;;1.57;1.33;;;8.90;99.90;;;9.71;100.00;98490.53;5061991;28;20845;-81
2021/05/20 02:15:56;;;;;;;1.40;1.20;;;8.90;99.90;;;9.46;100.00;98493.22;5062175;28;20541;-80
2021/05/20 02:18:24;;;;;;;1.33;1.23;;;8.60;99.90;;;9.40;100.00;98499.13;5064624;28;20487;-81
2021/05/20 02:20:52;;;;;;;1.40;1.17;;;8.50;99.90;;;9.42;100.00;98497.16;5062662;28;20460;-80
2021/05/20 02:23:21;;;;;;;2.27;1.43;;;8.50;99.90;;;9.47;100.00;98513.16;5054647;28;20500;-81
2021/05/20 02:25:50;;;;;;;1.37;1.27;;;8.60;99.90;;;9.52;100.00;98504.78;5060811;28;20471;-81
2021/05/20 02:28:18;;;;;;;2.13;1.30;;;8.60;99.90;;;9.51;100.00;98500.56;5063815;28;20464;-81
2021/05/20 02:30:46;;;;;;;1.57;1.10;;;8.60;99.90;;;9.46;100.00;98505.47;5056952;28;21021;-81
2021/05/20 02:33:14;;;;;;;2.90;1.10;;;8.50;99.90;;;9.41;100.00;98502.53;5066231;28;20456;-80
2021/05/20 02:35:43;;;;;;;1.67;1.30;;;8.50;99.90;;;9.43;100.00;98511.84;5064877;28;21101;-81
2021/05/20 02:38:11;;;;;;;2.37;1.50;;;8.50;99.90;;;9.48;100.00;98504.31;5065792;28;20518;-81
2021/05/20 02:40:40;;;;;;;6.00;1.70;;;8.60;99.90;;;9.54;100.00;98514.06;5063065;28;20472;-81
2021/05/20 02:43:08;;;;;;;2.83;1.40;;;8.60;99.90;;;9.64;100.00;98513.06;5062642;28;20505;-81
2021/05/20 02:45:36;;;;;;;2.57;1.93;;;8.70;99.90;;;9.63;100.00;98503.59;5062922;28;20498;-81
2021/05/20 02:48:05;;;;;;;2.17;1.27;;;8.70;99.90;;;9.57;100.00;98505.09;5064465;28;20455;-81
2021/05/20 02:50:33;;;;;;;1.97;1.57;;;8.70;99.90;;;9.42;100.00;98504.16;5060298;28;20464;-80
2021/05/20 02:53:01;;;;;;;1.67;1.53;;;8.50;99.90;;;9.49;100.00;98505.13;5061826;28;21004;-81
2021/05/20 02:55:30;;;;;;;3.53;1.30;;;8.60;99.90;;;9.61;100.00;98498.56;5062593;28;20826;-81
2021/05/20 02:58:02;;;;;;;2.70;1.57;;;8.70;99.90;;;9.68;100.00;98503.94;5062278;28;20964;-81
2021/05/20 03:00:32;;;;;;;1.63;1.40;;;8.80;99.90;;;9.73;100.00;98502.41;5061656;28;20460;-81
2021/05/20 03:03:00;;;;;;;1.27;1.17;;;8.90;99.90;;;9.72;100.00;98505.22;5059890;28;20464;-81
2021/05/20 03:05:30;;;;;;;2.33;1.33;;;8.90;99.90;;;9.66;100.00;98506.69;5062332;28;20460;-81
2021/05/20 03:07:58;;;;;;;1.30;1.20;;;8.80;99.90;;;9.65;100.00;98512.09;5063752;28;20480;-81
2021/05/20 03:10:26;;;;;;;1.13;1.03;;;8.80;99.90;;;9.69;100.00;98513.38;5063231;28;20463;-80
2021/05/20 03:12:55;;;;;;;2.30;1.30;;;8.80;99.90;;;9.71;100.00;98508.81;5062938;28;20456;-81
2021/05/20 03:15:25;;;;;;;1.73;1.30;;;8.80;99.90;;;9.73;100.00;98510.25;5067817;28;20486;-80
2021/05/20 03:17:53;;;;;;;3.37;1.80;;;8.90;99.90;;;9.74;100.00;98514.50;5068846;28;20487;-81
2021/05/20 03:20:21;;;;;;;3.83;1.33;;;8.90;99.90;;;9.73;100.00;98512.88;5063917;28;20467;-81
2021/05/20 03:22:49;;;;;;;1.43;1.30;;;8.80;99.90;;;9.76;100.00;98522.16;5066262;28;20456;-81
2021/05/20 03:25:18;;;;;;;3.63;1.43;;;8.90;99.90;;;9.75;100.00;98517.94;5065252;28;20526;-81
2021/05/20 03:27:47;;;;;;;1.30;1.17;;;8.90;99.90;;;9.70;100.00;98515.81;5062875;28;20458;-80
2021/05/20 03:30:15;;;;;;;3.10;1.20;;;8.80;99.90;;;9.71;100.00;98511.41;5063491;28;20448;-81
2021/05/20 03:32:44;;;;;;;5.27;1.27;;;8.80;99.90;;;9.70;100.00;98512.38;5063884;28;20479;-80
2021/05/20 03:35:13;;;;;;;2.90;1.40;;;8.80;99.90;;;9.70;100.00;98515.00;5065556;28;20455;-81
2021/05/20 03:37:41;;;;;;;3.40;1.50;;;8.80;99.90;;;9.70;100.00;98517.63;5067596;28;20488;-80
2021/05/20 03:40:09;;;;;;;1.57;1.30;;;8.80;99.90;;;9.68;100.00;98523.03;5067001;28;20517;-81
2021/05/20 03:42:38;;;;;;;1.30;1.20;;;8.80;99.90;;;9.71;100.00;98527.91;5062590;28;20456;-81
2021/05/20 03:45:09;;;;;;;1.87;1.67;;;8.80;99.90;;;9.80;100.00;98531.28;5067664;28;20773;-80
2021/05/20 03:47:38;;;;;;;2.10;1.90;;;8.90;99.90;;;9.79;100.00;98527.06;5067412;28;20882;-81
2021/05/20 03:50:09;;;;;;;1.43;1.30;;;8.90;99.90;;;9.75;100.00;98536.22;5062976;28;20502;-81
2021/05/20 03:52:37;;;;;;;4.97;1.60;;;8.90;99.90;;;9.70;100.00;98538.50;5064564;28;20941;-81
2021/05/20 03:55:06;;;;;;;2.30;1.60;;;8.80;99.90;;;9.72;100.00;98536.56;5064834;28;20464;-81
2021/05/20 03:57:34;;;;;;;1.40;1.30;;;8.80;99.90;;;9.67;100.00;98533.63;5067044;28;20724;-81
2021/05/20 04:00:04;;;;;;;4.93;1.87;;;8.80;99.90;;;9.66;100.00;98539.81;5062455;28;20595;-81
2021/05/20 04:02:32;;;;;;;2.00;1.50;;;8.70;99.90;;;9.66;100.00;98538.03;5064223;28;20460;-80
2021/05/20 04:05:00;;;;;;;2.63;1.70;;;8.80;99.90;;;9.56;100.00;98546.06;5063830;28;20469;-81
2021/05/20 04:07:29;;;;;;;2.40;1.37;;;8.70;99.90;;;9.65;100.00;98551.25;5062172;28;20992;-80
2021/05/20 04:09:57;;;;;;;5.03;1.30;;;8.70;99.90;;;9.70;100.00;98546.34;5067889;28;20467;-80
2021/05/20 04:12:25;;;;;;;11.40;1.30;;;8.80;99.90;;;9.60;100.00;98555.19;5066582;28;20468;-81
2021/05/20 04:14:53;;;;;;;5.90;1.47;;;8.70;99.90;;;9.57;100.00;98555.53;5067406;28;20468;-80
2021/05/20 04:17:21;;;;;;;6.10;1.80;;;8.70;99.90;;;9.66;100.00;98564.13;5065193;28;20491;-81
2021/05/20 04:19:50;;;;;;;3.00;1.37;;;8.80;99.90;;;9.70;100.00;98564.63;5064013;28;20517;-80
2021/05/20 04:22:19;;;;;;;4.90;1.80;;;8.80;99.90;;;9.70;100.00;98562.81;5063938;28;21042;-80
2021/05/20 04:24:47;;;;;;;1.80;1.40;;;8.80;99.90;;;9.72;100.00;98565.28;5066917;28;20510;-81
2021/05/20 04:27:15;;;;;;;2.50;1.70;;;8.90;99.90;;;9.68;100.00;98561.38;5062219;28;20825;-81
2021/05/20 04:29:43;;;;;;;4.40;1.80;;;8.80;99.90;;;9.73;100.00;98569.50;5061489;28;20452;-80
2021/05/20 04:32:11;;;;;;;2.40;1.50;;;8.80;99.90;;;9.72;100.00;98570.50;5064479;28;20464;-81
2021/05/20 04:34:39;;;;;;;2.23;1.33;;;8.80;99.90;;;9.63;100.00;98571.50;5063838;28;20464;-81
2021/05/20 04:37:08;;;;;;;3.93;1.77;;;8.70;99.90;;;9.59;100.00;98569.22;5063109;28;20491;-81
2021/05/20 04:39:36;;;;;;;3.23;1.80;;;8.70;99.90;;;9.64;100.00;98575.75;5068640;28;20444;-81
2021/05/20 04:42:06;;;;;;;1.83;1.60;;;8.70;99.90;;;9.69;100.00;98574.25;5066808;28;20549;-81
2021/05/20 04:44:34;;;;;;;1.53;1.43;;;8.80;99.90;;;9.74;100.00;98584.19;5065838;28;21021;-81
2021/05/20 04:47:02;;;;;;;3.00;1.40;;;8.80;99.90;;;9.71;100.00;98587.13;5060720;28;20561;-81
2021/05/20 04:49:30;;;;;;;5.10;1.57;;;8.80;99.90;;;9.72;100.00;98581.72;5065082;28;20459;-80
2021/05/20 04:51:58;;;;;;;4.60;1.90;;;8.80;99.90;;;9.80;100.00;98588.72;5062565;28;20813;-81
2021/05/20 04:54:26;;;;;;;1.80;1.70;;;8.90;99.90;;;9.79;100.00;98590.53;5067215;28;20782;-81
2021/05/20 04:56:54;;;;;;;2.70;1.40;;;8.90;99.90;;;9.85;100.00;98583.84;5064930;28;20491;-81
2021/05/20 04:59:23;;;;;;;7.33;3.10;;;8.90;99.90;;;9.94;100.00;98588.03;5064951;28;20470;-81
2021/05/20 05:01:51;;;;;;;2.40;2.20;;;9.10;99.90;;;9.98;100.00;98586.72;5058319;28;20580;-80
2021/05/20 05:04:19;;;;;;;3.27;2.30;;;9.20;99.90;;;10.02;100.00;98581.00;5065006;28;20552;-81
2021/05/20 05:06:47;;;;;;;6.73;2.70;;;9.30;99.90;;;10.07;100.00;98586.50;5064973;28;20521;-81
2021/05/20 05:09:15;;;;;;;2.30;2.07;;;9.40;99.90;;;10.08;100.00;98587.31;5065188;28;20480;-81
2021/05/20 05:11:43;;;;;;;3.80;1.90;;;9.40;99.90;;;10.11;100.00;98592.19;5062488;28;20456;-81
2021/05/20 05:14:11;;;;;;;2.77;2.10;;;9.40;99.90;;;10.14;100.00;98599.72;5066969;28;20485;-81
2021/05/20 05:16:40;;;;;;;12.63;2.23;;;9.40;99.90;;;10.17;100.00;98603.81;5063636;28;20523;-81
2021/05/20 05:19:09;;;;;;;3.67;1.90;;;9.40;99.90;;;10.24;100.00;98600.31;5065313;28;20486;-81
2021/05/20 05:21:37;;;;;;;2.47;1.80;;;9.40;99.90;;;10.30;100.00;98599.66;5066765;28;20876;-81
2021/05/20 05:24:09;;;;;;;2.57;2.03;;;9.50;99.90;;;10.36;100.00;98609.44;5063020;28;20457;-80
2021/05/20 05:26:37;;;;;;;2.50;2.13;;;9.50;99.90;;;10.42;100.00;98603.50;5062659;28;20448;-81
2021/05/20 05:29:05;;;;;;;2.70;2.27;;;9.60;99.90;;;10.49;100.00;98601.84;5061103;28;20456;-81
2021/05/20 05:31:36;;;;;;;3.80;2.20;;;9.70;99.90;;;10.53;100.00;98600.50;5066315;28;20460;-80
2021/05/20 05:34:05;;;;;;;3.90;1.90;;;9.70;99.90;;;10.59;100.00;98599.81;5064721;28;20452;-79
2021/05/20 05:36:33;;;;;;;2.30;2.10;;;9.80;99.90;;;10.65;100.00;98594.88;5060364;28;20465;-80
2021/05/20 05:39:01;;;;;;;3.60;2.10;;;10.00;99.90;;;10.68;100.00;98594.53;5061465;28;20522;-81
2021/05/20 05:41:30;;;;;;;3.43;2.83;;;10.00;99.90;;;10.77;100.00;98601.31;5065427;28;21057;-81
2021/05/20 05:43:58;;;;;;;2.53;2.33;;;10.20;99.90;;;10.80;100.00;98595.75;5060473;28;20456;-81
2021/05/20 05:46:27;;;;;;;2.60;2.40;;;10.20;99.90;;;10.87;100.00;98594.06;5062582;28;20492;-81
2021/05/20 05:49:01;;;;;;;2.40;2.20;;;10.30;99.90;;;10.92;100.00;98594.34;5064786;28;20467;-80
2021/05/20 05:51:31;;;;;;;2.83;2.60;;;10.40;99.90;;;10.93;100.00;98591.53;5062898;28;20460;-81
2021/05/20 05:53:59;;;;;;;3.00;2.50;;;10.40;99.90;;;10.95;100.00;98597.44;5060162;28;20460;-81
2021/05/20 05:56:27;;;;;;;3.20;2.40;;;10.40;99.90;;;11.03;100.00;98599.19;5059260;28;20464;-81
2021/05/20 05:59:15;;;;;;;5.33;2.90;;;10.40;99.90;;;11.14;100.00;98597.94;5064042;28;20464;-81
2021/05/20 06:01:43;;;;;;;4.70;2.43;;;10.50;99.90;;;11.23;100.00;98602.09;5059239;28;20541;-81
2021/05/20 06:04:11;;;;;;;2.63;2.30;;;10.70;99.90;;;11.28;100.00;98591.94;5060163;28;20468;-81
2021/05/20 06:06:43;;;;;;;23.70;4.00;;;10.70;99.90;;;11.39;100.00;98607.19;5064713;28;20460;-81
2021/05/20 06:09:12;;;;;;;3.23;2.73;;;10.80;99.90;;;11.46;100.00;98593.22;5064422;28;20545;-81
2021/05/20 06:11:42;;;;;;;2.90;2.50;;;10.90;99.90;;;11.54;100.00;98589.69;5057471;28;20997;-81
2021/05/20 06:14:11;;;;;;;3.33;2.60;;;10.90;99.90;;;11.58;100.00;98590.97;5064528;28;20456;-81
2021/05/20 06:16:41;;;;;;;2.67;2.40;;;11.00;99.90;;;11.62;100.00;98602.72;5062438;28;20464;-81
2021/05/20 06:19:10;;;;;;;4.03;2.97;;;10.90;99.90;;;11.70;100.00;98596.59;5058023;28;20457;-81
2021/05/20 06:21:40;;;;;;;3.30;2.77;;;11.00;99.90;;;11.68;100.00;98609.03;5060764;28;20887;-81
2021/05/20 06:24:10;;;;;;;4.23;3.20;;;11.00;99.90;;;11.72;100.00;98603.28;5066305;28;20435;-81
2021/05/20 06:26:39;;;;;;;4.47;2.97;;;11.10;99.90;;;11.76;100.00;98603.75;5062703;28;20493;-81
2021/05/20 06:29:07;;;;;;;3.90;2.50;;;11.20;99.90;;;11.77;100.00;98600.13;5064219;28;20448;-81
2021/05/20 06:31:35;;;;;;;2.90;2.60;;;11.20;99.90;;;11.83;100.00;98609.91;5065016;28;20468;-81
2021/05/20 06:34:04;;;;;;;4.40;3.10;;;11.20;99.90;;;11.80;100.00;98610.25;5065473;28;20478;-81
2021/05/20 06:36:32;;;;;;;3.20;2.90;;;11.20;99.90;;;11.77;100.00;98610.59;5065199;28;20476;-81
2021/05/20 06:39:01;;;;;;;4.63;3.10;;;11.10;99.90;;;11.79;100.00;98619.94;5059175;28;20996;-81
2021/05/20 06:41:29;;;;;;;4.23;2.83;;;11.10;99.90;;;11.84;100.00;98611.50;5059999;28;20467;-81
2021/05/20 06:43:57;;;;;;;3.60;2.60;;;11.20;99.90;;;11.86;100.00;98614.78;5062325;28;20459;-80
2021/05/20 06:46:25;;;;;;;3.70;3.10;;;11.20;99.90;;;11.86;100.00;98609.53;5063713;28;20488;-81
2021/05/20 06:48:54;;;;;;;3.60;2.70;;;11.20;99.90;;;11.91;100.00;98620.25;5069281;28;20871;-81
2021/05/20 06:51:22;;;;;;;3.10;2.53;;;11.20;99.90;;;11.93;100.00;98618.28;5065739;28;20459;-81
2021/05/20 06:53:53;;;;;;;3.07;2.60;;;11.20;99.90;;;11.93;100.00;98615.69;5068136;28;20463;-81
2021/05/20 06:56:25;;;;;;;3.50;2.77;;;11.30;99.90;;;11.86;100.00;98615.59;5065953;28;20463;-81
2021/05/20 07:01:45;;;;;;;2.80;2.50;;;11.10;99.90;;;11.88;100.00;98623.25;5064458;28;20953;-80
2021/05/20 07:04:14;;;;;;;3.30;3.00;;;11.10;99.90;;;11.91;100.00;98620.25;5066004;28;20472;-80
2021/05/20 07:06:42;;;;;;;4.07;2.80;;;11.20;99.90;;;11.91;100.00;98622.88;5058603;28;20452;-81
2021/05/20 07:09:25;;;;;;;6.23;4.73;;;11.20;99.90;;;11.92;100.00;98624.53;5065810;28;20455;-84
2021/05/20 07:11:56;;;;;;;2.90;2.40;;;11.20;99.90;;;11.96;100.00;98626.59;5069300;28;20590;-80
2021/05/20 07:14:24;;;;;;;2.83;2.30;;;11.30;99.90;;;11.95;100.00;98619.72;5067283;28;20467;-80
2021/05/20 07:16:53;;;;;;;5.67;2.70;;;11.20;99.90;;;11.97;100.00;98624.81;5053260;28;20475;-80
2021/05/20 07:19:22;;;;;;;3.10;2.30;;;11.30;99.90;;;12.01;100.00;98628.66;5064798;28;20452;-81
2021/05/20 07:21:51;;;;;;;93.47;46.53;;;11.30;99.90;;;12.05;100.00;98635.19;5060878;28;20483;-85
2021/05/20 07:24:19;;;;;;;5.97;3.30;;;11.40;99.90;;;12.07;100.00;98623.53;5066496;28;20468;-81
2021/05/20 07:26:51;;;;;;;3.00;2.70;;;11.40;99.90;;;12.14;100.00;98628.88;5068141;28;20451;-81
2021/05/20 07:29:21;;;;;;;2.80;2.30;;;11.40;99.90;;;12.17;100.00;98628.50;5070251;28;20522;-80
2021/05/20 07:31:49;;;;;;;3.30;2.60;;;11.40;99.90;;;12.22;100.00;98627.97;5070228;28;20440;-81
2021/05/20 07:34:17;;;;;;;3.77;2.60;;;11.60;99.90;;;12.22;100.00;98625.34;5070030;28;20440;-81
2021/05/20 07:36:45;;;;;;;8.10;3.07;;;11.50;99.90;;;12.24;100.00;98629.38;5068369;28;20529;-81
2021/05/20 07:39:15;;;;;;;3.53;2.40;;;11.60;99.90;;;12.33;100.00;98632.72;5068143;28;20504;-81
2021/05/20 07:41:44;;;;;;;23.90;12.40;;;11.60;99.90;;;12.39;100.00;98632.78;5067761;28;20867;-82
2021/05/20 07:44:12;;;;;;;6.20;3.00;;;11.70;99.90;;;12.42;100.00;98627.19;5066149;28;20467;-81
2021/05/20 07:46:41;;;;;;;4.53;2.63;;;11.70;99.90;;;12.52;100.00;98642.63;5069401;28;20530;-81
2021/05/20 07:49:09;;;;;;;2.70;2.33;;;11.80;99.90;;;12.55;100.00;98637.84;5066800;28;20455;-81
2021/05/20 07:51:37;;;;;;;5.17;2.47;;;11.80;99.90;;;12.60;100.00;98638.06;5068484;28;20448;-81
2021/05/20 07:54:08;;;;;;;3.00;1.90;;;12.00;99.90;;;12.66;100.00;98627.84;5069620;28;20498;-81
2021/05/20 07:56:36;;;;;;;2.70;2.50;;;12.00;99.90;;;12.70;100.00;98629.94;5069912;28;20439;-81
2021/05/20 07:59:05;;;;;;;5.70;2.67;;;12.00;99.90;;;12.72;100.00;98638.41;5068622;28;20494;-81
2021/05/20 08:01:34;;;;;;;4.23;2.73;;;12.00;99.90;;;12.72;100.00;98634.97;5068312;28;20437;-81
2021/05/20 08:04:07;;;;;;;2.83;2.53;;;12.00;99.90;;;12.76;100.00;98638.84;5067640;28;20459;-81
2021/05/20 08:06:39;;;;;;;4.80;2.90;;;12.10;99.90;;;12.82;100.00;98644.16;5065088;28;20456;-81
2021/05/20 08:09:17;;;;;;;4.30;3.17;;;12.10;99.90;;;12.89;100.00;98644.22;5061294;28;21001;-81
2021/05/20 08:11:45;;;;;;;3.80;2.50;;;12.20;99.90;;;12.92;100.00;98639.41;5068469;28;20460;-81
2021/05/20 08:14:13;;;;;;;2.40;2.20;;;12.20;99.90;;;12.96;100.00;98635.44;5070228;28;20440;-81
2021/05/20 08:16:41;;;;;;;3.23;2.60;;;12.20;99.90;;;13.03;100.00;98635.50;5068146;28;20449;-82
2021/05/20 08:19:10;;;;;;;2.13;1.93;;;12.30;99.90;;;13.06;100.00;98633.31;5066208;28;21141;-81
2021/05/20 08:21:38;;;;;;;3.10;2.23;;;12.30;99.90;;;13.10;100.00;98636.41;5069244;28;20494;-81
2021/05/20 08:24:08;;;;;;;2.57;2.10;;;12.40;99.90;;;13.10;100.00;98636.41;5070244;28;20437;-81
2021/05/20 08:26:36;;;;;;;3.07;2.63;;;12.50;99.90;;;13.07;97.61;98637.56;5063490;28;20857;-81
2021/05/20 08:29:04;;;;;;;2.67;2.07;;;12.50;99.90;;;12.95;94.66;98638.22;5058633;28;20909;-81
2021/05/20 08:31:34;;;;;;;2.17;1.97;;;12.30;99.90;;;12.97;95.29;98638.88;5067321;28;20445;-81
2021/05/20 08:34:03;;;;;;;2.03;1.83;;;12.30;99.90;;;13.06;95.63;98635.09;5068304;28;20857;-81
2021/05/20 08:36:33;;;;;;;2.23;1.80;;;12.40;99.90;;;13.10;96.27;98633.78;5067270;28;20444;-81
2021/05/20 08:39:01;;;;;;;2.13;1.70;;;12.50;99.90;;;13.18;96.77;98632.84;5075575;28;20536;-81
2021/05/20 08:41:30;;;;;;;1.97;1.80;;;12.60;99.90;;;13.21;95.67;98629.81;5069277;28;20436;-81
2021/05/20 08:44:07;;;;;;;2.53;1.73;;;12.50;99.90;;;13.25;92.68;98634.53;5068470;28;20451;-82
2021/05/20 08:46:35;;;;;;;3.60;2.10;;;12.60;99.90;;;13.28;91.01;98634.13;5063361;28;20821;-81
2021/05/20 08:49:07;;;;;;;2.70;2.10;;;12.60;99.90;;;13.29;88.76;98625.25;5069341;28;20448;-81
2021/05/20 08:51:36;;;;;;;3.10;2.40;;;12.70;99.90;;;13.33;87.72;98626.47;5069055;28;20805;-81
2021/05/20 08:54:05;;;;;;;4.17;3.07;;;12.70;99.90;;;13.40;87.38;98611.59;5067740;28;20456;-86
2021/05/20 08:56:33;;;;;;;2.77;2.47;;;12.80;99.90;;;13.48;87.87;98615.88;5066585;28;20460;-81
2021/05/20 08:59:02;;;;;;;2.57;2.17;;;12.80;99.90;;;13.52;87.99;98617.13;5065579;28;20502;-82
2021/05/20 09:01:36;;;;;;;3.00;2.13;;;12.90;99.90;;;13.56;88.74;98618.38;5066697;28;20444;-82
2021/05/20 09:04:06;;;;;;;5.10;2.40;;;12.90;99.90;;;13.57;88.68;98623.44;5063792;28;20556;-82
2021/05/20 09:06:45;;;;;;;8.30;2.07;;;12.90;99.90;;;13.59;88.06;98634.59;5067304;28;20842;-82
2021/05/20 09:09:15;;;;;;;2.40;2.13;;;12.90;99.90;;;13.63;86.82;98626.31;5067981;28;20472;-82
2021/05/20 09:11:48;;;;;;;2.20;2.00;;;12.90;99.90;;;13.72;87.36;98633.03;5067996;28;20852;-82
2021/05/20 09:14:30;;;;;;;2.30;2.10;;;13.00;99.90;;;13.76;87.47;98621.13;5068545;28;20433;-82
2021/05/20 09:17:13;;;;;;;3.50;2.20;;;13.00;99.90;;;13.95;89.88;98615.97;5068589;28;20440;-81
2021/05/20 09:19:45;;;;;;;3.47;2.60;;;13.40;99.90;;;13.96;88.23;98629.94;5064976;28;20875;-82
2021/05/20 09:22:15;;;;;;;3.73;2.40;;;13.30;99.90;;;13.85;86.47;98620.00;5060079;28;20445;-81
2021/05/20 09:24:46;;;;;;;2.43;2.23;;;13.20;99.90;;;13.88;87.47;98623.03;5060907;28;21248;-82
2021/05/20 09:27:31;;;;;;;2.50;2.30;;;13.20;99.90;;;13.95;87.76;98618.59;5056660;28;20446;-81
2021/05/20 09:30:18;;;;;;;3.37;2.20;;;13.30;99.90;;;14.04;88.27;98614.00;5063327;28;20527;-81
2021/05/20 09:32:52;;;;;;;5.63;2.80;;;13.40;99.90;;;14.03;89.02;98630.78;5067765;28;20832;-82
2021/05/20 09:35:22;;;;;;;5.03;2.50;;;13.40;99.90;;;14.02;88.39;98623.94;5068569;28;20440;-80
2021/05/20 09:37:57;;;;;;;2.03;1.83;;;13.40;99.90;;;13.99;86.29;98622.47;5064333;28;20831;-81
2021/05/20 09:40:28;;;;;;;2.27;2.00;;;13.40;99.90;;;13.97;85.75;98627.13;5066925;28;20468;-81
2021/05/20 09:42:57;;;;;;;4.77;2.47;;;13.30;99.90;;;13.96;84.78;98625.50;5060178;28;20457;-81
2021/05/20 09:45:29;;;;;;;2.67;2.00;;;13.30;99.90;;;13.97;84.44;98618.44;5064494;28;20997;-82
2021/05/20 09:48:06;;;;;;;3.33;1.90;;;13.20;99.90;;;14.05;84.37;98607.75;5060028;28;20550;-83
2021/05/20 09:50:41;;;;;;;2.03;1.83;;;13.30;99.90;;;14.09;84.26;98611.63;5063252;28;20487;-82
2021/05/20 09:53:13;;;;;;;6.20;1.83;;;13.40;99.90;;;14.12;85.15;98605.97;5060780;28;20505;-82
2021/05/20 09:55:49;;;;;;;2.20;1.77;;;13.40;99.90;;;14.12;84.63;98600.72;5061001;28;20460;-82
2021/05/20 09:58:17;;;;;;;2.63;1.77;;;13.40;99.90;;;14.20;84.25;98600.53;5061473;28;20476;-82
2021/05/20 10:00:45;;;;;;;1.90;1.67;;;13.50;99.90;;;14.28;84.54;98604.81;5058811;28;20460;-81
2021/05/20 10:03:15;;;;;;;1.90;1.70;;;13.60;99.90;;;14.29;83.01;98595.91;5065652;28;20468;-81
2021/05/20 10:05:45;;;;;;;3.40;1.80;;;13.50;99.90;;;14.21;83.28;98599.53;5066472;28;20448;-81
2021/05/20 10:08:17;;;;;;;3.30;2.33;;;13.50;99.90;;;14.30;85.15;98606.22;5067100;28;20548;-80
2021/05/20 10:10:48;;;;;;;2.93;1.90;;;13.60;99.90;;;14.28;83.41;98597.72;5067688;28;20494;-81
2021/05/20 10:13:19;;;;;;;1.97;1.77;;;13.60;99.90;;;14.26;82.21;98602.41;5066547;28;20452;-81
2021/05/20 10:15:47;;;;;;;1.80;1.70;;;13.60;99.90;;;14.24;83.55;98607.03;5059056;28;20471;-81
2021/05/20 10:18:18;;;;;;;20.53;11.37;;;13.50;99.90;;;14.27;85.36;98608.44;5066261;28;20537;-85
2021/05/20 10:20:49;;;;;;;3.27;1.77;;;13.50;99.90;;;14.30;83.86;98603.59;5063657;28;20507;-81
2021/05/20 10:23:21;;;;;;;1.63;1.53;;;13.60;99.90;;;14.31;84.26;98601.78;5061789;28;20483;-83
2021/05/20 10:25:52;;;;;;;2.13;1.70;;;13.60;99.90;;;14.29;82.79;98602.00;5061236;28;20467;-82
2021/05/20 10:28:25;;;;;;;1.93;1.50;;;13.60;99.90;;;14.37;84.06;98604.47;5082052;28;20495;-82
2021/05/20 10:30:59;;;;;;;2.30;1.87;;;13.70;99.90;;;14.35;81.39;98598.59;5059077;28;20460;-82
2021/05/20 10:33:31;;;;;;;2.43;1.53;;;13.60;99.90;;;14.36;81.46;98594.16;5062641;28;20471;-81
2021/05/20 10:36:02;;;;;;;2.00;1.80;;;13.60;99.90;;;14.38;81.24;98595.56;5061566;28;20547;-81